Serenade Of The Seas — C6FV8 — position and weather

sailwx.info

Track history (hours):
 
Tides and Currents Weather Stations Pressure Air Temp Water Temp Dewpoint Dewpoint Depression Visibility Wind Speed Wind Dir Waves Ship Positions

Serenade Of The Seas

Operator: Royal Caribbean Cruises Ltd

Last reported at 2014-Jul-26 17:32 UTC. Time now 2014-Jul-31 21:42 UTC.
Position N 40°30' E 014°44'.

Length 294 m; draft 8.5 m.

Type: Ship. MMSI: 311492000.

Date/timePositionNaut miles runAvg speedWind from/ knotsBaromVisibWave heightAir tempDewpointWater temp
2014-Jul-26 17:32N 40°30' E 014°44'15 1.1
2014-Jul-26 03:32N 40°31' E 014°24'1717.5
2014-Jul-26 02:34N 40°32' E 014°01'1817.7
2014-Jul-26 01:33N 40°37' E 013°39'1817.9
2014-Jul-26 00:33N 40°42' E 013°16'3817.4
2014-Jul-25 22:21N 40°55' E 012°29'150 6.2
2014-Jul-24 22:19N 42°55' E 010°28'1317.6
2014-Jul-24 21:34N 43°04' E 010°13'1817.5
2014-Jul-24 20:33N 43°14' E 009°54'1716.5
2014-Jul-24 19:33N 43°28' E 009°42'1817.5
2014-Jul-24 18:33N 43°45' E 009°48'1717.4
2014-Jul-24 17:33N 44°03' E 009°52'4 3.9
2014-Jul-24 16:31N 44°06' E 009°50'0 0.0
2014-Jul-24 15:31N 44°06' E 009°50'0 0.0
2014-Jul-24 14:31N 44°06' E 009°50'0 0.0
2014-Jul-24 13:31N 44°06' E 009°50'0 0.0
2014-Jul-24 12:31N 44°06' E 009°50'0 0.0
2014-Jul-24 11:31N 44°06' E 009°50'0 0.0
2014-Jul-24 10:31N 44°06' E 009°50'0 0.0
2014-Jul-24 09:31N 44°06' E 009°50'0 0.0
2014-Jul-24 08:28N 44°06' E 009°50'0 0.0
2014-Jul-24 07:31N 44°06' E 009°50'0 0.0
2014-Jul-24 06:31N 44°06' E 009°50'0 0.0
2014-Jul-24 05:28N 44°06' E 009°50'0 0.1
2014-Jul-24 04:34N 44°06' E 009°50'8 8.2
2014-Jul-24 03:34N 43°59' E 009°56'1211.8
2014-Jul-24 02:33N 43°56' E 009°40'1212.3
2014-Jul-24 01:34N 43°51' E 009°25'1212.1
2014-Jul-24 00:34N 43°48' E 009°09'1211.9
2014-Jul-23 23:34N 43°45' E 008°52'1212.0
2014-Jul-23 22:34N 43°42' E 008°36'1212.1
2014-Jul-23 21:34N 43°38' E 008°20'1211.9
2014-Jul-23 20:34N 43°37' E 008°04'1211.8
2014-Jul-23 19:33N 43°33' E 007°48'1212.0
2014-Jul-23 18:34N 43°31' E 007°32'1212.2
2014-Jul-23 17:33N 43°30' E 007°15'1111.3
2014-Jul-23 16:33N 43°30' E 006°60'2 1.9
2014-Jul-23 15:33N 43°32' E 007°01'0 0.0
2014-Jul-23 14:33N 43°32' E 007°01'0 0.0
2014-Jul-23 13:33N 43°32' E 007°01'0 0.0
2014-Jul-23 12:33N 43°32' E 007°01'0 0.0
2014-Jul-23 11:33N 43°32' E 007°01'0 0.0
2014-Jul-23 10:33N 43°32' E 007°01'0 0.0
2014-Jul-23 09:33N 43°32' E 007°01'0 0.0
2014-Jul-23 08:33N 43°32' E 007°01'0 0.0
2014-Jul-23 07:33N 43°32' E 007°01'0 0.0
2014-Jul-23 06:33N 43°32' E 007°01'1110.7
2014-Jul-23 05:33N 43°22' E 006°55'1919.1
2014-Jul-23 04:33N 43°05' E 006°46'1918.8
2014-Jul-23 03:33N 42°49' E 006°32'1818.4
2014-Jul-23 02:34N 42°38' E 006°11'1918.8
2014-Jul-23 01:33N 42°30' E 005°48'2119.0
2014-Jul-23 00:26N 42°20' E 005°23'1919.0
2014-Jul-22 23:27N 42°12' E 005°00'1818.5
2014-Jul-22 22:29N 42°04' E 004°38'3618.7
2014-Jul-22 20:33N 41°47' E 003°56'1918.7
2014-Jul-22 19:33N 41°38' E 003°34'1818.6
2014-Jul-22 18:33N 41°30' E 003°12'1919.0
2014-Jul-22 17:33N 41°21' E 002°49'1818.5
2014-Jul-22 16:33N 41°16' E 002°25'1212.1
2014-Jul-22 15:33N 41°20' E 002°10'2 1.7
2014-Jul-22 14:32N 41°22' E 002°11'0 0.0
2014-Jul-22 13:20N 41°22' E 002°11'0 0.0
2014-Jul-22 12:32N 41°22' E 002°11'0 0.0
2014-Jul-22 11:32N 41°22' E 002°11'0 0.0
2014-Jul-22 10:32N 41°22' E 002°11'0 0.0
2014-Jul-22 09:32N 41°22' E 002°11'0 0.0
2014-Jul-22 03:31N 41°22' E 002°11'5 5.6
2014-Jul-22 02:33N 41°16' E 002°13'1212.0
2014-Jul-22 01:32N 41°17' E 002°30'1111.4
2014-Jul-22 00:34N 41°20' E 002°44'2511.8
2014-Jul-21 22:26N 41°33' E 003°12'1212.0
2014-Jul-21 21:25N 41°40' E 003°25'1111.7
2014-Jul-21 20:28N 41°47' E 003°37'211.0
2014-Jul-21 20:17N 41°48' E 003°39'912.1
2014-Jul-21 19:33N 41°54' E 003°49'1212.2
2014-Jul-21 18:33N 42°01' E 004°02'1212.4
2014-Jul-21 17:34N 42°08' E 004°16'1211.7
2014-Jul-21 16:33N 42°15' E 004°28'2512.5
2014-Jul-21 14:33N 42°30' E 004°55'2511.8
2014-Jul-21 12:24N 42°44' E 005°24'1111.8
2014-Jul-21 11:31N 42°44' E 005°39'1212.5
2014-Jul-21 10:33N 42°44' E 005°55'1212.3
2014-Jul-21 09:33N 42°43' E 006°12'1212.1
2014-Jul-21 08:33N 42°44' E 006°28'1211.7
2014-Jul-21 07:33N 42°49' E 006°42'1211.7
2014-Jul-21 06:33N 42°57' E 006°54'1212.1
2014-Jul-21 05:34N 43°05' E 007°07'1212.2
2014-Jul-21 04:33N 43°12' E 007°20'4812.0
2014-Jul-21 00:33N 43°32' E 008°20'1312.4
2014-Jul-20 23:33N 43°32' E 008°38'1212.4
2014-Jul-20 22:34N 43°33' E 008°55'1211.9
2014-Jul-20 21:33N 43°32' E 009°11'1212.2
2014-Jul-20 20:33N 43°32' E 009°28'1212.1
2014-Jul-20 19:33N 43°32' E 009°45'1212.0
2014-Jul-20 18:33N 43°31' E 010°01'1111.4
2014-Jul-20 17:33N 43°32' E 010°17'1 1.3
2014-Jul-20 16:25N 43°33' E 010°18'0 0.0
2014-Jul-20 15:28N 43°33' E 010°18'0 0.0
2014-Jul-20 14:31N 43°33' E 010°18'0 0.0
2014-Jul-20 13:31N 43°33' E 010°18'0 0.0
2014-Jul-20 12:31N 43°33' E 010°18'0 0.0
2014-Jul-20 11:28N 43°33' E 010°18'0 0.0
2014-Jul-20 10:31N 43°33' E 010°18'0 0.0
2014-Jul-20 09:31N 43°33' E 010°18'0 0.0
2014-Jul-20 08:31N 43°33' E 010°18'0 0.0
2014-Jul-20 07:31N 43°33' E 010°18'0 0.0
2014-Jul-20 06:31N 43°33' E 010°18'0 0.0
2014-Jul-20 05:31N 43°33' E 010°18'0 0.0
2014-Jul-20 04:31N 43°33' E 010°18'7 7.8
2014-Jul-20 03:33N 43°27' E 010°13'1312.9
2014-Jul-20 02:33N 43°14' E 010°17'1313.4
2014-Jul-20 01:34N 43°01' E 010°21'1413.9
2014-Jul-20 00:32N 42°51' E 010°36'1414.1
2014-Jul-19 23:33N 42°38' E 010°38'3612.1
2014-Jul-19 20:33N 42°02' E 010°50'1513.8
2014-Jul-19 19:27N 41°58' E 011°10'50 2.8
2014-Jul-19 01:20N 41°27' E 012°02'1617.6
2014-Jul-19 00:26N 41°13' E 012°13'4816.7
2014-Jul-18 21:33N 40°45' E 013°04'1817.8
2014-Jul-18 20:33N 40°40' E 013°27'1817.6
2014-Jul-18 19:34N 40°35' E 013°49'1717.5
2014-Jul-18 18:33N 40°30' E 014°11'1817.2
2014-Jul-18 17:30N 40°35' E 014°34'9 0.6
2014-Jul-18 03:33N 40°30' E 014°44'1919.3
2014-Jul-18 02:33N 40°11' E 014°46'51016.4
2014-Jul-16 19:31N 36°22' E 024°26'1818.6
2014-Jul-16 18:33N 36°36' E 024°40'  
Track history (hours):
 
Tides and Currents Weather Stations Pressure Air Temp Water Temp Dewpoint Dewpoint Depression Visibility Wind Speed Wind Dir Waves Ship Positions

Serenade Of The Seas

Operator: Royal Caribbean Cruises Ltd

Last reported at 2014-Jul-26 17:32 UTC. Time now 2014-Jul-31 21:42 UTC.
Position N 40°30' E 014°44'.

Length 294 m; draft 8.5 m.

Type: Ship. MMSI: 311492000.

Date/timePositionNaut miles runAvg speedWind from/ knotsBaromVisibWave heightAir tempDewpointWater temp
2014-Jul-26 17:32N 40°30' E 014°44'15 1.1
2014-Jul-26 03:32N 40°31' E 014°24'1717.5
2014-Jul-26 02:34N 40°32' E 014°01'1817.7
2014-Jul-26 01:33N 40°37' E 013°39'1817.9
2014-Jul-26 00:33N 40°42' E 013°16'3817.4
2014-Jul-25 22:21N 40°55' E 012°29'150 6.2
2014-Jul-24 22:19N 42°55' E 010°28'1317.6
2014-Jul-24 21:34N 43°04' E 010°13'1817.5
2014-Jul-24 20:33N 43°14' E 009°54'1716.5
2014-Jul-24 19:33N 43°28' E 009°42'1817.5
2014-Jul-24 18:33N 43°45' E 009°48'1717.4
2014-Jul-24 17:33N 44°03' E 009°52'4 3.9
2014-Jul-24 16:31N 44°06' E 009°50'0 0.0
2014-Jul-24 15:31N 44°06' E 009°50'0 0.0
2014-Jul-24 14:31N 44°06' E 009°50'0 0.0
2014-Jul-24 13:31N 44°06' E 009°50'0 0.0
2014-Jul-24 12:31N 44°06' E 009°50'0 0.0
2014-Jul-24 11:31N 44°06' E 009°50'0 0.0
2014-Jul-24 10:31N 44°06' E 009°50'0 0.0
2014-Jul-24 09:31N 44°06' E 009°50'0 0.0
2014-Jul-24 08:28N 44°06' E 009°50'0 0.0
2014-Jul-24 07:31N 44°06' E 009°50'0 0.0
2014-Jul-24 06:31N 44°06' E 009°50'0 0.0
2014-Jul-24 05:28N 44°06' E 009°50'0 0.1
2014-Jul-24 04:34N 44°06' E 009°50'8 8.2
2014-Jul-24 03:34N 43°59' E 009°56'1211.8
2014-Jul-24 02:33N 43°56' E 009°40'1212.3
2014-Jul-24 01:34N 43°51' E 009°25'1212.1
2014-Jul-24 00:34N 43°48' E 009°09'1211.9
2014-Jul-23 23:34N 43°45' E 008°52'1212.0
2014-Jul-23 22:34N 43°42' E 008°36'1212.1
2014-Jul-23 21:34N 43°38' E 008°20'1211.9
2014-Jul-23 20:34N 43°37' E 008°04'1211.8
2014-Jul-23 19:33N 43°33' E 007°48'1212.0
2014-Jul-23 18:34N 43°31' E 007°32'1212.2
2014-Jul-23 17:33N 43°30' E 007°15'1111.3
2014-Jul-23 16:33N 43°30' E 006°60'2 1.9
2014-Jul-23 15:33N 43°32' E 007°01'0 0.0
2014-Jul-23 14:33N 43°32' E 007°01'0 0.0
2014-Jul-23 13:33N 43°32' E 007°01'0 0.0
2014-Jul-23 12:33N 43°32' E 007°01'0 0.0
2014-Jul-23 11:33N 43°32' E 007°01'0 0.0
2014-Jul-23 10:33N 43°32' E 007°01'0 0.0
2014-Jul-23 09:33N 43°32' E 007°01'0 0.0
2014-Jul-23 08:33N 43°32' E 007°01'0 0.0
2014-Jul-23 07:33N 43°32' E 007°01'0 0.0
2014-Jul-23 06:33N 43°32' E 007°01'1110.7
2014-Jul-23 05:33N 43°22' E 006°55'1919.1
2014-Jul-23 04:33N 43°05' E 006°46'1918.8
2014-Jul-23 03:33N 42°49' E 006°32'1818.4
2014-Jul-23 02:34N 42°38' E 006°11'1918.8
2014-Jul-23 01:33N 42°30' E 005°48'2119.0
2014-Jul-23 00:26N 42°20' E 005°23'1919.0
2014-Jul-22 23:27N 42°12' E 005°00'1818.5
2014-Jul-22 22:29N 42°04' E 004°38'3618.7
2014-Jul-22 20:33N 41°47' E 003°56'1918.7
2014-Jul-22 19:33N 41°38' E 003°34'1818.6
2014-Jul-22 18:33N 41°30' E 003°12'1919.0
2014-Jul-22 17:33N 41°21' E 002°49'1818.5
2014-Jul-22 16:33N 41°16' E 002°25'1212.1
2014-Jul-22 15:33N 41°20' E 002°10'2 1.7
2014-Jul-22 14:32N 41°22' E 002°11'0 0.0
2014-Jul-22 13:20N 41°22' E 002°11'0 0.0
2014-Jul-22 12:32N 41°22' E 002°11'0 0.0
2014-Jul-22 11:32N 41°22' E 002°11'0 0.0
2014-Jul-22 10:32N 41°22' E 002°11'0 0.0
2014-Jul-22 09:32N 41°22' E 002°11'0 0.0
2014-Jul-22 03:31N 41°22' E 002°11'5 5.6
2014-Jul-22 02:33N 41°16' E 002°13'1212.0
2014-Jul-22 01:32N 41°17' E 002°30'1111.4
2014-Jul-22 00:34N 41°20' E 002°44'2511.8
2014-Jul-21 22:26N 41°33' E 003°12'1212.0
2014-Jul-21 21:25N 41°40' E 003°25'1111.7
2014-Jul-21 20:28N 41°47' E 003°37'211.0
2014-Jul-21 20:17N 41°48' E 003°39'912.1
2014-Jul-21 19:33N 41°54' E 003°49'1212.2
2014-Jul-21 18:33N 42°01' E 004°02'1212.4
2014-Jul-21 17:34N 42°08' E 004°16'1211.7
2014-Jul-21 16:33N 42°15' E 004°28'2512.5
2014-Jul-21 14:33N 42°30' E 004°55'2511.8
2014-Jul-21 12:24N 42°44' E 005°24'1111.8
2014-Jul-21 11:31N 42°44' E 005°39'1212.5
2014-Jul-21 10:33N 42°44' E 005°55'1212.3
2014-Jul-21 09:33N 42°43' E 006°12'1212.1
2014-Jul-21 08:33N 42°44' E 006°28'1211.7
2014-Jul-21 07:33N 42°49' E 006°42'1211.7
2014-Jul-21 06:33N 42°57' E 006°54'1212.1
2014-Jul-21 05:34N 43°05' E 007°07'1212.2
2014-Jul-21 04:33N 43°12' E 007°20'4812.0
2014-Jul-21 00:33N 43°32' E 008°20'1312.4
2014-Jul-20 23:33N 43°32' E 008°38'1212.4
2014-Jul-20 22:34N 43°33' E 008°55'1211.9
2014-Jul-20 21:33N 43°32' E 009°11'1212.2
2014-Jul-20 20:33N 43°32' E 009°28'1212.1
2014-Jul-20 19:33N 43°32' E 009°45'1212.0
2014-Jul-20 18:33N 43°31' E 010°01'1111.4
2014-Jul-20 17:33N 43°32' E 010°17'1 1.3
2014-Jul-20 16:25N 43°33' E 010°18'0 0.0
2014-Jul-20 15:28N 43°33' E 010°18'0 0.0
2014-Jul-20 14:31N 43°33' E 010°18'0 0.0
2014-Jul-20 13:31N 43°33' E 010°18'0 0.0
2014-Jul-20 12:31N 43°33' E 010°18'0 0.0
2014-Jul-20 11:28N 43°33' E 010°18'0 0.0
2014-Jul-20 10:31N 43°33' E 010°18'0 0.0
2014-Jul-20 09:31N 43°33' E 010°18'0 0.0
2014-Jul-20 08:31N 43°33' E 010°18'0 0.0
2014-Jul-20 07:31N 43°33' E 010°18'0 0.0
2014-Jul-20 06:31N 43°33' E 010°18'0 0.0
2014-Jul-20 05:31N 43°33' E 010°18'0 0.0
2014-Jul-20 04:31N 43°33' E 010°18'7 7.8
2014-Jul-20 03:33N 43°27' E 010°13'1312.9
2014-Jul-20 02:33N 43°14' E 010°17'1313.4
2014-Jul-20 01:34N 43°01' E 010°21'1413.9
2014-Jul-20 00:32N 42°51' E 010°36'1414.1
2014-Jul-19 23:33N 42°38' E 010°38'3612.1
2014-Jul-19 20:33N 42°02' E 010°50'1513.8
2014-Jul-19 19:27N 41°58' E 011°10'50 2.8
2014-Jul-19 01:20N 41°27' E 012°02'1617.6
2014-Jul-19 00:26N 41°13' E 012°13'4816.7
2014-Jul-18 21:33N 40°45' E 013°04'1817.8
2014-Jul-18 20:33N 40°40' E 013°27'1817.6
2014-Jul-18 19:34N 40°35' E 013°49'1717.5
2014-Jul-18 18:33N 40°30' E 014°11'1817.2
2014-Jul-18 17:30N 40°35' E 014°34'9 0.6
2014-Jul-18 03:33N 40°30' E 014°44'1919.3
2014-Jul-18 02:33N 40°11' E 014°46'51016.4
2014-Jul-16 19:31N 36°22' E 024°26'1818.6
2014-Jul-16 18:33N 36°36' E 024°40'  

Dump ship's entire track history